sensor_id;sensor_type;location;lat;lon;timestamp;P1;durP1;ratioP1;P2;durP2;ratioP2
1154;SDS011;566;48.414;9.118;2023-05-14T00:01:38;14.00;;;11.57;;
1154;SDS011;566;48.414;9.118;2023-05-14T00:04:04;13.93;;;11.77;;
1154;SDS011;566;48.414;9.118;2023-05-14T00:06:30;13.45;;;11.07;;
1154;SDS011;566;48.414;9.118;2023-05-14T00:08:59;12.77;;;10.65;;
1154;SDS011;566;48.414;9.118;2023-05-14T00:11:24;14.60;;;10.40;;
1154;SDS011;566;48.414;9.118;2023-05-14T00:13:50;14.55;;;11.30;;
1154;SDS011;566;48.414;9.118;2023-05-14T00:16:16;13.38;;;10.25;;
1154;SDS011;566;48.414;9.118;2023-05-14T00:18:41;12.65;;;9.10;;
1154;SDS011;566;48.414;9.118;2023-05-14T00:21:07;13.20;;;9.63;;
1154;SDS011;566;48.414;9.118;2023-05-14T00:23:33;13.13;;;10.85;;
1154;SDS011;566;48.414;9.118;2023-05-14T00:25:58;17.70;;;13.63;;
1154;SDS011;566;48.414;9.118;2023-05-14T00:28:24;14.55;;;11.68;;
1154;SDS011;566;48.414;9.118;2023-05-14T00:30:50;14.73;;;11.68;;
1154;SDS011;566;48.414;9.118;2023-05-14T00:33:16;14.15;;;11.18;;
1154;SDS011;566;48.414;9.118;2023-05-14T00:35:42;12.00;;;9.57;;
1154;SDS011;566;48.414;9.118;2023-05-14T00:38:08;14.30;;;10.25;;
1154;SDS011;566;48.414;9.118;2023-05-14T00:40:34;14.32;;;10.70;;
1154;SDS011;566;48.414;9.118;2023-05-14T00:43:00;15.98;;;12.23;;
1154;SDS011;566;48.414;9.118;2023-05-14T00:45:26;17.83;;;13.13;;
1154;SDS011;566;48.414;9.118;2023-05-14T00:47:52;14.40;;;11.43;;
1154;SDS011;566;48.414;9.118;2023-05-14T00:50:18;15.70;;;12.27;;
1154;SDS011;566;48.414;9.118;2023-05-14T00:52:45;16.40;;;13.13;;
1154;SDS011;566;48.414;9.118;2023-05-14T00:55:12;18.88;;;13.80;;
1154;SDS011;566;48.414;9.118;2023-05-14T00:57:40;17.42;;;13.20;;
1154;SDS011;566;48.414;9.118;2023-05-14T01:00:07;18.70;;;14.02;;
1154;SDS011;566;48.414;9.118;2023-05-14T01:02:33;18.33;;;12.93;;
1154;SDS011;566;48.414;9.118;2023-05-14T01:04:58;16.25;;;11.45;;
1154;SDS011;566;48.414;9.118;2023-05-14T01:10:38;16.58;;;12.52;;
1154;SDS011;566;48.414;9.118;2023-05-14T01:13:12;17.55;;;13.68;;
1154;SDS011;566;48.414;9.118;2023-05-14T01:15:49;18.90;;;14.05;;
1154;SDS011;566;48.414;9.118;2023-05-14T01:18:18;15.13;;;11.73;;
1154;SDS011;566;48.414;9.118;2023-05-14T01:20:48;14.10;;;11.18;;
1154;SDS011;566;48.414;9.118;2023-05-14T01:23:16;16.13;;;11.85;;
1154;SDS011;566;48.414;9.118;2023-05-14T01:25:41;18.98;;;14.60;;
1154;SDS011;566;48.414;9.118;2023-05-14T01:28:17;20.83;;;15.55;;
1154;SDS011;566;48.414;9.118;2023-05-14T01:31:00;26.17;;;14.63;;
1154;SDS011;566;48.414;9.118;2023-05-14T01:33:41;18.65;;;13.70;;
1154;SDS011;566;48.414;9.118;2023-05-14T01:36:08;17.90;;;13.63;;
1154;SDS011;566;48.414;9.118;2023-05-14T01:38:34;17.00;;;13.05;;
1154;SDS011;566;48.414;9.118;2023-05-14T01:41:01;16.25;;;11.93;;
1154;SDS011;566;48.414;9.118;2023-05-14T01:43:27;15.73;;;11.52;;
1154;SDS011;566;48.414;9.118;2023-05-14T01:45:53;15.50;;;11.68;;
1154;SDS011;566;48.414;9.118;2023-05-14T01:48:20;13.02;;;10.88;;
1154;SDS011;566;48.414;9.118;2023-05-14T01:50:45;21.95;;;14.65;;
1154;SDS011;566;48.414;9.118;2023-05-14T01:53:11;17.33;;;13.25;;
1154;SDS011;566;48.414;9.118;2023-05-14T01:55:37;16.50;;;13.02;;
1154;SDS011;566;48.414;9.118;2023-05-14T01:58:03;15.20;;;12.45;;
1154;SDS011;566;48.414;9.118;2023-05-14T02:00:28;16.95;;;12.68;;
1154;SDS011;566;48.414;9.118;2023-05-14T02:02:54;15.38;;;12.07;;
1154;SDS011;566;48.414;9.118;2023-05-14T02:05:20;15.20;;;11.70;;
1154;SDS011;566;48.414;9.118;2023-05-14T02:07:46;16.88;;;12.88;;
1154;SDS011;566;48.414;9.118;2023-05-14T02:10:13;19.58;;;15.00;;
1154;SDS011;566;48.414;9.118;2023-05-14T02:12:38;16.63;;;12.48;;
1154;SDS011;566;48.414;9.118;2023-05-14T02:15:04;18.08;;;13.23;;
1154;SDS011;566;48.414;9.118;2023-05-14T02:17:32;14.40;;;10.90;;
1154;SDS011;566;48.414;9.118;2023-05-14T02:19:58;12.27;;;9.95;;
1154;SDS011;566;48.414;9.118;2023-05-14T02:22:24;12.13;;;10.30;;
1154;SDS011;566;48.414;9.118;2023-05-14T02:24:50;11.65;;;9.23;;
1154;SDS011;566;48.414;9.118;2023-05-14T02:27:15;12.57;;;9.75;;
1154;SDS011;566;48.414;9.118;2023-05-14T02:29:41;16.55;;;11.57;;
1154;SDS011;566;48.414;9.118;2023-05-14T02:32:07;14.60;;;11.52;;
1154;SDS011;566;48.414;9.118;2023-05-14T02:34:33;16.63;;;12.18;;
1154;SDS011;566;48.414;9.118;2023-05-14T02:36:58;17.52;;;12.43;;
1154;SDS011;566;48.414;9.118;2023-05-14T02:39:25;14.52;;;11.98;;
1154;SDS011;566;48.414;9.118;2023-05-14T02:41:50;13.05;;;9.63;;
1154;SDS011;566;48.414;9.118;2023-05-14T02:44:16;14.75;;;10.23;;
1154;SDS011;566;48.414;9.118;2023-05-14T02:46:42;12.43;;;10.27;;
1154;SDS011;566;48.414;9.118;2023-05-14T02:49:08;12.60;;;9.07;;
1154;SDS011;566;48.414;9.118;2023-05-14T02:51:33;15.10;;;10.65;;
1154;SDS011;566;48.414;9.118;2023-05-14T02:54:00;14.50;;;11.73;;
1154;SDS011;566;48.414;9.118;2023-05-14T02:56:26;15.50;;;12.52;;
1154;SDS011;566;48.414;9.118;2023-05-14T02:58:52;15.85;;;12.98;;
1154;SDS011;566;48.414;9.118;2023-05-14T03:01:17;16.27;;;10.75;;
1154;SDS011;566;48.414;9.118;2023-05-14T03:03:43;12.40;;;10.60;;
1154;SDS011;566;48.414;9.118;2023-05-14T03:06:12;13.05;;;10.98;;
1154;SDS011;566;48.414;9.118;2023-05-14T03:08:38;13.77;;;11.25;;
1154;SDS011;566;48.414;9.118;2023-05-14T03:11:03;21.35;;;16.63;;
1154;SDS011;566;48.414;9.118;2023-05-14T03:13:30;17.20;;;13.95;;
1154;SDS011;566;48.414;9.118;2023-05-14T03:15:56;16.00;;;13.27;;
1154;SDS011;566;48.414;9.118;2023-05-14T03:18:22;14.75;;;12.25;;
1154;SDS011;566;48.414;9.118;2023-05-14T03:20:49;21.55;;;15.93;;
1154;SDS011;566;48.414;9.118;2023-05-14T03:23:15;15.70;;;13.35;;
1154;SDS011;566;48.414;9.118;2023-05-14T03:25:41;24.67;;;17.40;;
1154;SDS011;566;48.414;9.118;2023-05-14T03:28:06;18.55;;;15.45;;
1154;SDS011;566;48.414;9.118;2023-05-14T03:30:32;16.52;;;14.13;;
1154;SDS011;566;48.414;9.118;2023-05-14T03:32:58;22.25;;;17.55;;
1154;SDS011;566;48.414;9.118;2023-05-14T03:35:24;23.73;;;18.98;;
1154;SDS011;566;48.414;9.118;2023-05-14T03:37:50;24.38;;;19.90;;
1154;SDS011;566;48.414;9.118;2023-05-14T03:40:17;27.60;;;21.63;;
1154;SDS011;566;48.414;9.118;2023-05-14T03:42:43;26.83;;;22.50;;
1154;SDS011;566;48.414;9.118;2023-05-14T03:45:08;26.33;;;22.02;;
1154;SDS011;566;48.414;9.118;2023-05-14T03:47:34;23.10;;;19.23;;
1154;SDS011;566;48.414;9.118;2023-05-14T03:50:00;32.15;;;22.45;;
1154;SDS011;566;48.414;9.118;2023-05-14T03:52:26;23.58;;;20.13;;
1154;SDS011;566;48.414;9.118;2023-05-14T03:54:51;24.40;;;20.58;;
1154;SDS011;566;48.414;9.118;2023-05-14T03:57:17;25.70;;;19.75;;
1154;SDS011;566;48.414;9.118;2023-05-14T03:59:43;30.05;;;22.15;;
1154;SDS011;566;48.414;9.118;2023-05-14T04:02:09;29.75;;;22.73;;
1154;SDS011;566;48.414;9.118;2023-05-14T04:04:35;33.38;;;27.13;;
1154;SDS011;566;48.414;9.118;2023-05-14T04:07:00;35.38;;;27.33;;
1154;SDS011;566;48.414;9.118;2023-05-14T04:09:26;31.02;;;24.42;;
1154;SDS011;566;48.414;9.118;2023-05-14T04:11:52;34.20;;;24.98;;
1154;SDS011;566;48.414;9.118;2023-05-14T04:14:17;35.80;;;27.90;;
1154;SDS011;566;48.414;9.118;2023-05-14T04:16:44;40.80;;;29.35;;
1154;SDS011;566;48.414;9.118;2023-05-14T04:19:09;46.78;;;39.00;;
1154;SDS011;566;48.414;9.118;2023-05-14T04:21:35;33.83;;;24.98;;
1154;SDS011;566;48.414;9.118;2023-05-14T04:24:01;36.17;;;24.75;;
1154;SDS011;566;48.414;9.118;2023-05-14T04:26:27;30.95;;;23.42;;
1154;SDS011;566;48.414;9.118;2023-05-14T04:28:52;35.50;;;25.15;;
1154;SDS011;566;48.414;9.118;2023-05-14T04:31:18;38.35;;;28.63;;
1154;SDS011;566;48.414;9.118;2023-05-14T04:33:44;34.30;;;25.02;;
1154;SDS011;566;48.414;9.118;2023-05-14T04:36:10;33.72;;;25.23;;
1154;SDS011;566;48.414;9.118;2023-05-14T04:38:37;28.83;;;22.98;;
1154;SDS011;566;48.414;9.118;2023-05-14T04:41:03;41.55;;;29.60;;
1154;SDS011;566;48.414;9.118;2023-05-14T04:43:28;41.30;;;30.55;;
1154;SDS011;566;48.414;9.118;2023-05-14T04:45:54;33.22;;;25.95;;
1154;SDS011;566;48.414;9.118;2023-05-14T04:48:20;33.17;;;26.15;;
1154;SDS011;566;48.414;9.118;2023-05-14T04:50:45;48.58;;;32.25;;
1154;SDS011;566;48.414;9.118;2023-05-14T04:53:11;43.08;;;30.65;;
1154;SDS011;566;48.414;9.118;2023-05-14T04:55:36;43.25;;;29.67;;
1154;SDS011;566;48.414;9.118;2023-05-14T04:58:02;34.63;;;25.65;;
1154;SDS011;566;48.414;9.118;2023-05-14T05:00:28;50.92;;;32.45;;
1154;SDS011;566;48.414;9.118;2023-05-14T05:02:54;36.78;;;26.60;;
1154;SDS011;566;48.414;9.118;2023-05-14T05:05:20;48.85;;;32.85;;
1154;SDS011;566;48.414;9.118;2023-05-14T05:07:46;32.58;;;24.88;;
1154;SDS011;566;48.414;9.118;2023-05-14T05:10:11;40.08;;;27.95;;
1154;SDS011;566;48.414;9.118;2023-05-14T05:12:37;32.95;;;24.25;;
1154;SDS011;566;48.414;9.118;2023-05-14T05:15:03;38.42;;;27.05;;
1154;SDS011;566;48.414;9.118;2023-05-14T05:17:29;38.75;;;27.58;;
1154;SDS011;566;48.414;9.118;2023-05-14T05:19:55;35.92;;;27.45;;
1154;SDS011;566;48.414;9.118;2023-05-14T05:22:20;39.53;;;28.08;;
1154;SDS011;566;48.414;9.118;2023-05-14T05:24:46;41.85;;;29.92;;
1154;SDS011;566;48.414;9.118;2023-05-14T05:27:12;37.25;;;27.25;;
1154;SDS011;566;48.414;9.118;2023-05-14T05:29:38;38.60;;;27.77;;
1154;SDS011;566;48.414;9.118;2023-05-14T05:32:04;30.95;;;23.48;;
1154;SDS011;566;48.414;9.118;2023-05-14T05:34:30;39.55;;;28.83;;
1154;SDS011;566;48.414;9.118;2023-05-14T05:36:55;32.22;;;22.60;;
1154;SDS011;566;48.414;9.118;2023-05-14T05:39:24;31.23;;;23.52;;
1154;SDS011;566;48.414;9.118;2023-05-14T05:41:50;39.22;;;28.48;;
1154;SDS011;566;48.414;9.118;2023-05-14T05:44:15;41.55;;;30.23;;
1154;SDS011;566;48.414;9.118;2023-05-14T05:46:41;38.00;;;27.73;;
1154;SDS011;566;48.414;9.118;2023-05-14T05:49:06;29.70;;;23.75;;
1154;SDS011;566;48.414;9.118;2023-05-14T05:51:35;28.73;;;22.50;;
1154;SDS011;566;48.414;9.118;2023-05-14T05:54:00;36.03;;;25.40;;
1154;SDS011;566;48.414;9.118;2023-05-14T05:56:26;31.60;;;23.10;;
1154;SDS011;566;48.414;9.118;2023-05-14T05:58:51;26.88;;;20.42;;
1154;SDS011;566;48.414;9.118;2023-05-14T06:01:17;29.35;;;21.83;;
1154;SDS011;566;48.414;9.118;2023-05-14T06:03:42;27.02;;;21.08;;
1154;SDS011;566;48.414;9.118;2023-05-14T06:06:11;25.08;;;19.20;;
1154;SDS011;566;48.414;9.118;2023-05-14T06:08:37;28.05;;;21.58;;
1154;SDS011;566;48.414;9.118;2023-05-14T06:11:02;27.58;;;20.92;;
1154;SDS011;566;48.414;9.118;2023-05-14T06:13:29;24.17;;;18.42;;
1154;SDS011;566;48.414;9.118;2023-05-14T06:15:54;21.70;;;17.45;;
1154;SDS011;566;48.414;9.118;2023-05-14T06:18:20;22.77;;;18.98;;
1154;SDS011;566;48.414;9.118;2023-05-14T06:20:45;21.48;;;16.40;;
1154;SDS011;566;48.414;9.118;2023-05-14T06:23:11;23.70;;;19.38;;
1154;SDS011;566;48.414;9.118;2023-05-14T06:25:37;23.83;;;18.40;;
1154;SDS011;566;48.414;9.118;2023-05-14T06:28:02;23.30;;;18.73;;
1154;SDS011;566;48.414;9.118;2023-05-14T06:30:28;22.80;;;18.45;;
1154;SDS011;566;48.414;9.118;2023-05-14T06:32:53;24.67;;;19.52;;
1154;SDS011;566;48.414;9.118;2023-05-14T06:35:19;24.80;;;19.77;;
1154;SDS011;566;48.414;9.118;2023-05-14T06:37:45;20.60;;;15.80;;
1154;SDS011;566;48.414;9.118;2023-05-14T06:40:11;20.30;;;15.20;;
1154;SDS011;566;48.414;9.118;2023-05-14T06:42:39;17.85;;;15.02;;
1154;SDS011;566;48.414;9.118;2023-05-14T06:45:05;19.33;;;16.67;;
1154;SDS011;566;48.414;9.118;2023-05-14T06:47:31;24.17;;;18.10;;
1154;SDS011;566;48.414;9.118;2023-05-14T06:49:57;21.15;;;16.55;;
1154;SDS011;566;48.414;9.118;2023-05-14T06:52:23;21.17;;;17.83;;
1154;SDS011;566;48.414;9.118;2023-05-14T06:54:49;20.92;;;17.45;;
1154;SDS011;566;48.414;9.118;2023-05-14T06:57:15;19.42;;;15.32;;
1154;SDS011;566;48.414;9.118;2023-05-14T06:59:40;19.58;;;15.10;;
1154;SDS011;566;48.414;9.118;2023-05-14T07:02:06;23.65;;;18.50;;
1154;SDS011;566;48.414;9.118;2023-05-14T07:04:32;22.77;;;18.38;;
1154;SDS011;566;48.414;9.118;2023-05-14T07:06:57;24.33;;;17.73;;
1154;SDS011;566;48.414;9.118;2023-05-14T07:09:23;20.27;;;17.25;;
1154;SDS011;566;48.414;9.118;2023-05-14T07:11:48;19.27;;;15.57;;
1154;SDS011;566;48.414;9.118;2023-05-14T07:14:14;16.85;;;14.35;;
1154;SDS011;566;48.414;9.118;2023-05-14T07:16:39;17.73;;;14.55;;
1154;SDS011;566;48.414;9.118;2023-05-14T07:19:06;16.52;;;13.95;;
1154;SDS011;566;48.414;9.118;2023-05-14T07:21:31;15.95;;;13.57;;
1154;SDS011;566;48.414;9.118;2023-05-14T07:23:58;17.38;;;14.15;;
1154;SDS011;566;48.414;9.118;2023-05-14T07:26:24;18.02;;;15.32;;
1154;SDS011;566;48.414;9.118;2023-05-14T07:28:50;17.08;;;14.80;;
1154;SDS011;566;48.414;9.118;2023-05-14T07:31:15;18.17;;;14.32;;
1154;SDS011;566;48.414;9.118;2023-05-14T07:33:41;16.63;;;14.27;;
1154;SDS011;566;48.414;9.118;2023-05-14T07:36:06;18.33;;;13.88;;
1154;SDS011;566;48.414;9.118;2023-05-14T07:38:32;17.10;;;13.85;;
1154;SDS011;566;48.414;9.118;2023-05-14T07:40:58;20.95;;;17.73;;
1154;SDS011;566;48.414;9.118;2023-05-14T07:43:24;23.40;;;17.20;;
1154;SDS011;566;48.414;9.118;2023-05-14T07:45:50;19.95;;;16.55;;
1154;SDS011;566;48.414;9.118;2023-05-14T07:48:15;20.10;;;16.77;;
1154;SDS011;566;48.414;9.118;2023-05-14T07:50:41;19.15;;;16.10;;
1154;SDS011;566;48.414;9.118;2023-05-14T07:53:07;17.23;;;14.73;;
1154;SDS011;566;48.414;9.118;2023-05-14T07:55:32;18.27;;;15.20;;
1154;SDS011;566;48.414;9.118;2023-05-14T07:57:58;20.67;;;16.23;;
1154;SDS011;566;48.414;9.118;2023-05-14T08:00:24;18.35;;;15.65;;
1154;SDS011;566;48.414;9.118;2023-05-14T08:02:49;21.80;;;17.77;;
1154;SDS011;566;48.414;9.118;2023-05-14T08:05:15;18.35;;;14.55;;
1154;SDS011;566;48.414;9.118;2023-05-14T08:07:42;17.00;;;14.20;;
1154;SDS011;566;48.414;9.118;2023-05-14T08:10:07;17.45;;;14.77;;
1154;SDS011;566;48.414;9.118;2023-05-14T08:12:33;18.30;;;15.02;;
1154;SDS011;566;48.414;9.118;2023-05-14T08:14:59;19.00;;;16.05;;
1154;SDS011;566;48.414;9.118;2023-05-14T08:17:24;21.00;;;16.80;;
1154;SDS011;566;48.414;9.118;2023-05-14T08:19:50;22.25;;;17.85;;
1154;SDS011;566;48.414;9.118;2023-05-14T08:22:16;20.63;;;17.05;;
1154;SDS011;566;48.414;9.118;2023-05-14T08:24:42;18.27;;;15.75;;
1154;SDS011;566;48.414;9.118;2023-05-14T08:27:07;23.67;;;18.50;;
1154;SDS011;566;48.414;9.118;2023-05-14T08:29:33;22.25;;;17.95;;
1154;SDS011;566;48.414;9.118;2023-05-14T08:31:59;19.35;;;15.02;;
1154;SDS011;566;48.414;9.118;2023-05-14T08:34:25;16.90;;;14.32;;
1154;SDS011;566;48.414;9.118;2023-05-14T08:36:51;17.13;;;14.48;;
1154;SDS011;566;48.414;9.118;2023-05-14T08:39:17;16.23;;;14.00;;
1154;SDS011;566;48.414;9.118;2023-05-14T08:41:42;17.40;;;13.35;;
1154;SDS011;566;48.414;9.118;2023-05-14T08:44:32;19.13;;;15.55;;
1154;SDS011;566;48.414;9.118;2023-05-14T08:47:03;18.70;;;14.65;;
1154;SDS011;566;48.414;9.118;2023-05-14T08:52:05;14.10;;;11.65;;
1154;SDS011;566;48.414;9.118;2023-05-14T08:54:32;15.75;;;12.52;;
1154;SDS011;566;48.414;9.118;2023-05-14T08:56:58;18.30;;;14.30;;
1154;SDS011;566;48.414;9.118;2023-05-14T08:59:24;16.95;;;12.73;;
1154;SDS011;566;48.414;9.118;2023-05-14T09:01:53;18.27;;;13.43;;
1154;SDS011;566;48.414;9.118;2023-05-14T09:04:20;16.00;;;13.77;;
1154;SDS011;566;48.414;9.118;2023-05-14T09:06:51;16.85;;;13.13;;
1154;SDS011;566;48.414;9.118;2023-05-14T09:09:18;14.85;;;12.63;;
1154;SDS011;566;48.414;9.118;2023-05-14T09:11:51;16.30;;;13.77;;
1154;SDS011;566;48.414;9.118;2023-05-14T09:14:21;16.20;;;14.07;;
1154;SDS011;566;48.414;9.118;2023-05-14T09:16:48;15.63;;;12.10;;
1154;SDS011;566;48.414;9.118;2023-05-14T09:19:15;19.20;;;13.90;;
1154;SDS011;566;48.414;9.118;2023-05-14T09:21:43;19.60;;;14.85;;
1154;SDS011;566;48.414;9.118;2023-05-14T09:24:17;15.93;;;13.35;;
1154;SDS011;566;48.414;9.118;2023-05-14T09:26:48;15.85;;;13.30;;
1154;SDS011;566;48.414;9.118;2023-05-14T09:29:19;20.08;;;16.33;;
1154;SDS011;566;48.414;9.118;2023-05-14T09:31:48;18.60;;;15.00;;
1154;SDS011;566;48.414;9.118;2023-05-14T09:34:28;17.27;;;14.55;;
1154;SDS011;566;48.414;9.118;2023-05-14T09:37:00;17.23;;;14.50;;
1154;SDS011;566;48.414;9.118;2023-05-14T09:39:27;19.10;;;15.55;;
1154;SDS011;566;48.414;9.118;2023-05-14T09:41:53;14.73;;;12.48;;
1154;SDS011;566;48.414;9.118;2023-05-14T09:44:21;15.02;;;12.43;;
1154;SDS011;566;48.414;9.118;2023-05-14T09:46:51;15.63;;;13.00;;
1154;SDS011;566;48.414;9.118;2023-05-14T09:49:17;15.98;;;13.13;;
1154;SDS011;566;48.414;9.118;2023-05-14T09:51:43;15.23;;;12.63;;
1154;SDS011;566;48.414;9.118;2023-05-14T09:54:09;16.52;;;14.32;;
1154;SDS011;566;48.414;9.118;2023-05-14T09:56:35;16.52;;;14.55;;
1154;SDS011;566;48.414;9.118;2023-05-14T09:59:01;19.08;;;15.05;;
1154;SDS011;566;48.414;9.118;2023-05-14T10:01:28;16.58;;;13.73;;
1154;SDS011;566;48.414;9.118;2023-05-14T10:03:55;16.13;;;12.98;;
1154;SDS011;566;48.414;9.118;2023-05-14T10:06:22;14.00;;;11.88;;
1154;SDS011;566;48.414;9.118;2023-05-14T10:08:59;15.38;;;13.20;;
1154;SDS011;566;48.414;9.118;2023-05-14T10:11:27;17.35;;;13.13;;
1154;SDS011;566;48.414;9.118;2023-05-14T10:16:32;16.45;;;13.45;;
1154;SDS011;566;48.414;9.118;2023-05-14T10:19:06;17.75;;;14.00;;
1154;SDS011;566;48.414;9.118;2023-05-14T10:21:34;14.43;;;11.60;;
1154;SDS011;566;48.414;9.118;2023-05-14T10:24:06;17.02;;;13.68;;
1154;SDS011;566;48.414;9.118;2023-05-14T10:26:34;19.95;;;14.10;;
1154;SDS011;566;48.414;9.118;2023-05-14T10:29:03;16.92;;;13.27;;
1154;SDS011;566;48.414;9.118;2023-05-14T10:31:49;15.98;;;12.93;;
1154;SDS011;566;48.414;9.118;2023-05-14T10:37:14;12.77;;;10.02;;
1154;SDS011;566;48.414;9.118;2023-05-14T10:39:42;13.93;;;11.30;;
1154;SDS011;566;48.414;9.118;2023-05-14T10:42:15;11.05;;;9.68;;
1154;SDS011;566;48.414;9.118;2023-05-14T10:44:52;14.18;;;10.57;;
1154;SDS011;566;48.414;9.118;2023-05-14T10:47:24;11.02;;;9.35;;
1154;SDS011;566;48.414;9.118;2023-05-14T10:49:55;11.35;;;9.90;;
1154;SDS011;566;48.414;9.118;2023-05-14T10:52:22;11.50;;;9.93;;
1154;SDS011;566;48.414;9.118;2023-05-14T10:54:53;12.20;;;10.30;;
1154;SDS011;566;48.414;9.118;2023-05-14T10:57:27;16.75;;;11.40;;
1154;SDS011;566;48.414;9.118;2023-05-14T10:59:54;11.80;;;9.57;;
1154;SDS011;566;48.414;9.118;2023-05-14T11:07:33;11.20;;;8.48;;
1154;SDS011;566;48.414;9.118;2023-05-14T11:10:06;11.85;;;9.85;;
1154;SDS011;566;48.414;9.118;2023-05-14T11:12:34;12.55;;;10.82;;
1154;SDS011;566;48.414;9.118;2023-05-14T11:15:02;12.70;;;10.13;;
1154;SDS011;566;48.414;9.118;2023-05-14T11:17:30;11.40;;;9.75;;
1154;SDS011;566;48.414;9.118;2023-05-14T11:19:56;11.07;;;8.98;;
1154;SDS011;566;48.414;9.118;2023-05-14T11:22:23;11.32;;;9.60;;
1154;SDS011;566;48.414;9.118;2023-05-14T11:24:52;11.75;;;9.63;;
1154;SDS011;566;48.414;9.118;2023-05-14T11:27:18;10.20;;;8.27;;
1154;SDS011;566;48.414;9.118;2023-05-14T11:29:45;10.77;;;9.27;;
1154;SDS011;566;48.414;9.118;2023-05-14T11:32:12;12.82;;;7.65;;
1154;SDS011;566;48.414;9.118;2023-05-14T11:34:39;10.18;;;7.32;;
1154;SDS011;566;48.414;9.118;2023-05-14T11:37:07;13.43;;;8.10;;
1154;SDS011;566;48.414;9.118;2023-05-14T11:39:33;9.95;;;6.97;;
1154;SDS011;566;48.414;9.118;2023-05-14T11:42:01;9.35;;;6.88;;
1154;SDS011;566;48.414;9.118;2023-05-14T11:44:28;8.40;;;6.35;;
1154;SDS011;566;48.414;9.118;2023-05-14T11:46:54;8.95;;;6.05;;
1154;SDS011;566;48.414;9.118;2023-05-14T11:49:21;8.93;;;6.28;;
1154;SDS011;566;48.414;9.118;2023-05-14T11:51:56;9.07;;;5.78;;
1154;SDS011;566;48.414;9.118;2023-05-14T11:54:26;8.00;;;5.95;;
1154;SDS011;566;48.414;9.118;2023-05-14T11:56:53;7.95;;;5.28;;
1154;SDS011;566;48.414;9.118;2023-05-14T11:59:19;8.00;;;5.75;;
1154;SDS011;566;48.414;9.118;2023-05-14T12:01:46;8.20;;;5.18;;
1154;SDS011;566;48.414;9.118;2023-05-14T12:04:16;7.00;;;5.47;;
1154;SDS011;566;48.414;9.118;2023-05-14T12:06:46;8.85;;;6.30;;
1154;SDS011;566;48.414;9.118;2023-05-14T12:09:12;9.20;;;6.15;;
1154;SDS011;566;48.414;9.118;2023-05-14T12:11:41;7.10;;;5.38;;
1154;SDS011;566;48.414;9.118;2023-05-14T12:14:11;7.95;;;5.30;;
1154;SDS011;566;48.414;9.118;2023-05-14T12:16:40;7.30;;;5.90;;
1154;SDS011;566;48.414;9.118;2023-05-14T12:19:07;8.23;;;6.32;;
1154;SDS011;566;48.414;9.118;2023-05-14T12:21:35;9.07;;;6.63;;
1154;SDS011;566;48.414;9.118;2023-05-14T12:24:01;8.18;;;6.57;;
1154;SDS011;566;48.414;9.118;2023-05-14T12:26:26;8.27;;;6.28;;
1154;SDS011;566;48.414;9.118;2023-05-14T12:28:59;7.38;;;5.32;;
1154;SDS011;566;48.414;9.118;2023-05-14T12:31:29;8.80;;;5.18;;
1154;SDS011;566;48.414;9.118;2023-05-14T12:33:55;7.22;;;5.47;;
1154;SDS011;566;48.414;9.118;2023-05-14T12:36:20;8.65;;;5.53;;
1154;SDS011;566;48.414;9.118;2023-05-14T12:38:46;8.02;;;5.80;;
1154;SDS011;566;48.414;9.118;2023-05-14T12:41:12;8.00;;;6.18;;
1154;SDS011;566;48.414;9.118;2023-05-14T12:43:38;8.57;;;6.53;;
1154;SDS011;566;48.414;9.118;2023-05-14T12:46:06;8.05;;;5.63;;
1154;SDS011;566;48.414;9.118;2023-05-14T12:48:32;8.40;;;5.93;;
1154;SDS011;566;48.414;9.118;2023-05-14T12:50:57;7.68;;;5.65;;
1154;SDS011;566;48.414;9.118;2023-05-14T12:53:23;6.45;;;4.68;;
1154;SDS011;566;48.414;9.118;2023-05-14T12:55:48;6.93;;;4.80;;
1154;SDS011;566;48.414;9.118;2023-05-14T12:58:14;5.70;;;3.90;;
1154;SDS011;566;48.414;9.118;2023-05-14T13:00:40;7.20;;;4.05;;
1154;SDS011;566;48.414;9.118;2023-05-14T13:03:05;6.05;;;3.78;;
1154;SDS011;566;48.414;9.118;2023-05-14T13:05:31;6.03;;;3.90;;
1154;SDS011;566;48.414;9.118;2023-05-14T13:07:57;7.05;;;4.10;;
1154;SDS011;566;48.414;9.118;2023-05-14T13:10:24;5.75;;;4.43;;
1154;SDS011;566;48.414;9.118;2023-05-14T13:12:49;7.75;;;4.38;;
1154;SDS011;566;48.414;9.118;2023-05-14T13:15:16;8.15;;;5.07;;
1154;SDS011;566;48.414;9.118;2023-05-14T13:17:42;5.72;;;4.25;;
1154;SDS011;566;48.414;9.118;2023-05-14T13:20:08;13.13;;;5.00;;
1154;SDS011;566;48.414;9.118;2023-05-14T13:22:33;6.88;;;4.90;;
1154;SDS011;566;48.414;9.118;2023-05-14T13:24:59;6.82;;;4.55;;
1154;SDS011;566;48.414;9.118;2023-05-14T13:27:25;6.53;;;4.75;;
1154;SDS011;566;48.414;9.118;2023-05-14T13:29:50;5.82;;;3.80;;
1154;SDS011;566;48.414;9.118;2023-05-14T13:32:16;5.95;;;3.95;;
1154;SDS011;566;48.414;9.118;2023-05-14T13:34:41;5.72;;;4.00;;
1154;SDS011;566;48.414;9.118;2023-05-14T13:37:08;5.35;;;3.80;;
1154;SDS011;566;48.414;9.118;2023-05-14T13:39:33;6.47;;;4.50;;
1154;SDS011;566;48.414;9.118;2023-05-14T13:41:59;6.25;;;3.80;;
1154;SDS011;566;48.414;9.118;2023-05-14T13:44:25;5.30;;;3.67;;
1154;SDS011;566;48.414;9.118;2023-05-14T13:46:51;5.57;;;3.92;;
1154;SDS011;566;48.414;9.118;2023-05-14T13:49:16;8.15;;;4.22;;
1154;SDS011;566;48.414;9.118;2023-05-14T13:51:42;8.52;;;4.43;;
1154;SDS011;566;48.414;9.118;2023-05-14T13:54:08;5.88;;;4.30;;
1154;SDS011;566;48.414;9.118;2023-05-14T13:56:33;6.10;;;4.70;;
1154;SDS011;566;48.414;9.118;2023-05-14T13:58:59;6.30;;;4.38;;
1154;SDS011;566;48.414;9.118;2023-05-14T14:01:25;6.80;;;4.65;;
1154;SDS011;566;48.414;9.118;2023-05-14T14:03:51;7.00;;;4.28;;
1154;SDS011;566;48.414;9.118;2023-05-14T14:06:16;7.05;;;4.70;;
1154;SDS011;566;48.414;9.118;2023-05-14T14:08:42;7.95;;;5.22;;
1154;SDS011;566;48.414;9.118;2023-05-14T14:11:07;8.32;;;5.72;;
1154;SDS011;566;48.414;9.118;2023-05-14T14:13:33;6.88;;;4.22;;
1154;SDS011;566;48.414;9.118;2023-05-14T14:15:59;6.70;;;3.55;;
1154;SDS011;566;48.414;9.118;2023-05-14T14:18:26;5.85;;;3.70;;
1154;SDS011;566;48.414;9.118;2023-05-14T14:20:55;5.90;;;3.95;;
1154;SDS011;566;48.414;9.118;2023-05-14T14:23:21;9.38;;;4.32;;
1154;SDS011;566;48.414;9.118;2023-05-14T14:25:46;6.13;;;4.72;;
1154;SDS011;566;48.414;9.118;2023-05-14T14:28:12;6.60;;;4.10;;
1154;SDS011;566;48.414;9.118;2023-05-14T14:30:38;5.63;;;3.92;;
1154;SDS011;566;48.414;9.118;2023-05-14T14:33:03;7.00;;;4.18;;
1154;SDS011;566;48.414;9.118;2023-05-14T14:35:29;6.75;;;3.80;;
1154;SDS011;566;48.414;9.118;2023-05-14T14:37:58;6.22;;;4.05;;
1154;SDS011;566;48.414;9.118;2023-05-14T14:40:23;5.53;;;3.80;;
1154;SDS011;566;48.414;9.118;2023-05-14T14:42:52;6.15;;;4.30;;
1154;SDS011;566;48.414;9.118;2023-05-14T14:45:18;6.57;;;4.18;;
1154;SDS011;566;48.414;9.118;2023-05-14T14:47:43;6.47;;;4.18;;
1154;SDS011;566;48.414;9.118;2023-05-14T14:50:11;7.75;;;4.50;;
1154;SDS011;566;48.414;9.118;2023-05-14T14:52:37;5.80;;;3.75;;
1154;SDS011;566;48.414;9.118;2023-05-14T14:55:04;6.28;;;4.38;;
1154;SDS011;566;48.414;9.118;2023-05-14T14:57:30;7.38;;;5.65;;
1154;SDS011;566;48.414;9.118;2023-05-14T14:59:55;9.40;;;6.00;;
1154;SDS011;566;48.414;9.118;2023-05-14T15:02:21;8.15;;;6.07;;
1154;SDS011;566;48.414;9.118;2023-05-14T15:04:47;9.10;;;6.65;;
1154;SDS011;566;48.414;9.118;2023-05-14T15:07:12;8.45;;;6.35;;
1154;SDS011;566;48.414;9.118;2023-05-14T15:09:41;9.15;;;7.40;;
1154;SDS011;566;48.414;9.118;2023-05-14T15:12:06;10.57;;;7.22;;
1154;SDS011;566;48.414;9.118;2023-05-14T15:14:33;10.80;;;7.93;;
1154;SDS011;566;48.414;9.118;2023-05-14T15:16:59;12.93;;;7.63;;
1154;SDS011;566;48.414;9.118;2023-05-14T15:19:24;9.60;;;7.70;;
1154;SDS011;566;48.414;9.118;2023-05-14T15:21:50;12.60;;;8.50;;
1154;SDS011;566;48.414;9.118;2023-05-14T15:24:15;10.10;;;8.25;;